NGF weather

Kaneohe Bay MCAS (Marion E. Carl Field) Airport
Kaneohe, Hawaii, United States

Public forecast

Using degrees Fahrenheit for public forecast. Weather courtesy of forecast.io.

METAR (pilot weather report)

Retrieved 2019/03/22 13:57 UTC (41 minutes ago):

PHNG 221357Z COR 07011G18KT 10SM SCT024 BKN031 22/18 A3004 RMK SLP167 T0222 $

TAF (pilot weather forecast)

Forecast is more than 12 hours old.

Retrieved 2013/08/08 15:59 UTC (6 years ago):

TAF COR PHNG 081500Z 0815/0915 09007KT 9999 FEW025 SCT035 QNH3000INS TEMPO 0815/0818 VRB05KT SCT025 BKN035 BECMG 0818/0820 07008G16KT FEW025 SCT035 SCT050 QNH3000INS FM090600 07008KT 9999 SCT025 BKN035 BKN050 QNH3003INS TEMPO 0906/0910 07008G16KT T30/0823Z T23/0913Z COR 1546